Time;durP1;ratioP1;P1;durP2;ratioP2;P2;SDS_P1;SDS_P2;PMS_P1;PMS_P2;Temp;Humidity;BMP_temperature;BMP_pressure;BME280_temperature;BME280_humidity;BME280_pressure;Samples;Min_cycle;Max_cycle;Signal;HPM_P1;HPM_P2
2023/03/29 00:02:41;;;;;;;3.67;3.37;;;8.50;99.10;;;;;;10473230;28;20254;-80
2023/03/29 00:07:44;;;;;;;3.70;3.40;;;8.50;99.20;;;;;;10474508;28;20209;-81
2023/03/29 00:12:48;;;;;;;4.63;3.90;;;8.50;99.40;;;;;;10477855;28;20275;-81
2023/03/29 00:17:50;;;;;;;4.03;3.40;;;8.50;99.70;;;;;;10484350;28;20220;-80
2023/03/29 00:22:52;;;;;;;3.87;3.43;;;8.50;99.90;;;;;;10450005;28;20259;-81
2023/03/29 00:27:55;;;;;;;3.40;3.20;;;8.50;99.90;;;;;;10468213;28;20306;-81
2023/03/29 00:32:58;;;;;;;4.20;3.87;;;8.50;99.80;;;;;;10464940;28;20222;-81
2023/03/29 00:38:00;;;;;;;3.67;3.40;;;8.40;99.90;;;;;;10449320;28;20221;-80
2023/03/29 00:43:08;;;;;;;3.63;3.43;;;8.40;99.60;;;;;;10467257;28;20206;-81
2023/03/29 00:48:14;;;;;;;3.73;3.40;;;8.40;99.30;;;;;;10468913;28;20304;-81
2023/03/29 00:53:20;;;;;;;3.00;2.87;;;8.40;99.40;;;;;;10473729;28;20266;-80
2023/03/29 00:58:28;;;;;;;4.77;4.37;;;8.40;99.80;;;;;;10486845;28;20359;-81
2023/03/29 01:03:36;;;;;;;4.03;3.80;;;8.50;99.40;;;;;;10465902;28;20205;-79
2023/03/29 01:08:43;;;;;;;4.23;3.83;;;8.50;99.30;;;;;;10469829;28;20435;-81
2023/03/29 01:13:51;;;;;;;4.60;4.20;;;8.60;98.80;;;;;;10497363;28;20234;-81
2023/03/29 01:18:53;;;;;;;8.80;6.53;;;8.60;99.10;;;;;;10470827;28;20621;-81
2023/03/29 01:24:28;;;;;;;3.93;3.63;;;8.60;98.70;;;;;;10458761;28;20635;-79
2023/03/29 01:29:35;;;;;;;4.10;3.80;;;8.60;98.30;;;;;;10457996;28;20226;-80
2023/03/29 01:34:43;;;;;;;3.50;3.30;;;8.50;98.80;;;;;;10458726;28;20264;-81
2023/03/29 01:39:46;;;;;;;4.03;3.73;;;8.50;98.70;;;;;;10463314;28;20226;-81
2023/03/29 01:44:57;;;;;;;4.23;3.33;;;8.50;99.30;;;;;;10468465;28;20212;-80
2023/03/29 01:50:07;;;;;;;3.83;3.53;;;8.60;99.50;;;;;;10466249;28;20277;-81
2023/03/29 01:55:12;;;;;;;5.00;3.97;;;8.70;99.40;;;;;;10459306;28;20277;-81
2023/03/29 02:00:21;;;;;;;4.13;3.83;;;8.70;99.50;;;;;;10464013;28;20672;-81
2023/03/29 02:05:25;;;;;;;3.70;3.47;;;8.70;99.50;;;;;;10481434;28;20289;-81
2023/03/29 02:10:28;;;;;;;4.10;3.80;;;8.70;99.60;;;;;;10463823;28;20275;-80
2023/03/29 02:15:32;;;;;;;5.00;4.50;;;8.70;99.50;;;;;;10457765;28;20296;-79
2023/03/29 02:20:37;;;;;;;4.00;3.63;;;8.70;99.20;;;;;;10465272;28;20703;-82
2023/03/29 02:25:40;;;;;;;4.33;4.03;;;8.70;98.90;;;;;;10466181;28;20278;-81
2023/03/29 02:30:52;;;;;;;4.03;3.70;;;8.70;99.00;;;;;;10469381;28;20243;-80
2023/03/29 02:35:58;;;;;;;4.03;3.63;;;8.60;99.20;;;;;;10470585;28;20219;-82
2023/03/29 02:41:01;;;;;;;4.93;4.23;;;8.70;99.60;;;;;;10463189;28;20202;-82
2023/03/29 02:46:06;;;;;;;20.80;7.40;;;8.70;99.20;;;;;;10462314;28;21856;-81
2023/03/29 02:51:15;;;;;;;6.53;4.30;;;8.70;99.40;;;;;;10463572;28;20266;-81
2023/03/29 02:56:18;;;;;;;4.40;4.00;;;8.70;98.80;;;;;;10470071;22;20290;-78
2023/03/29 03:01:22;;;;;;;5.40;4.40;;;8.70;99.20;;;;;;10362667;28;20197;-78
2023/03/29 03:06:26;;;;;;;10.17;6.70;;;8.70;98.40;;;;;;10343485;28;20716;-78
2023/03/29 03:11:28;;;;;;;5.07;4.30;;;8.60;98.50;;;;;;10358205;28;20206;-79
2023/03/29 03:16:32;;;;;;;6.47;5.10;;;8.60;99.20;;;;;;10362836;28;20281;-79
2023/03/29 03:21:34;;;;;;;5.47;4.73;;;8.60;99.50;;;;;;10356906;28;20294;-78
2023/03/29 03:26:37;;;;;;;4.27;3.80;;;8.60;99.00;;;;;;10358801;28;20277;-78
2023/03/29 03:31:41;;;;;;;3.30;3.10;;;8.70;97.80;;;;;;10375970;28;20282;-78
2023/03/29 03:37:10;;;;;;;3.33;2.90;;;8.70;97.10;;;;;;10344722;28;20215;-78
2023/03/29 03:42:14;;;;;;;3.30;3.10;;;8.70;96.50;;;;;;10381298;28;20622;-79
2023/03/29 03:47:19;;;;;;;2.90;2.70;;;8.70;96.60;;;;;;10343401;28;20293;-78
2023/03/29 03:52:22;;;;;;;2.93;2.73;;;8.80;96.40;;;;;;10362338;28;20204;-79
2023/03/29 03:57:24;;;;;;;3.20;3.00;;;8.90;96.00;;;;;;10358677;28;20286;-79
2023/03/29 04:02:29;;;;;;;3.63;3.33;;;8.90;95.60;;;;;;10361484;28;20196;-77
2023/03/29 04:07:31;;;;;;;3.67;3.00;;;9.00;95.30;;;;;;10346372;28;20218;-78
2023/03/29 04:13:01;;;;;;;3.37;2.87;;;9.10;94.50;;;;;;10349781;28;20221;-79
2023/03/29 04:18:08;;;;;;;3.30;3.00;;;9.10;94.30;;;;;;10361203;28;20586;-78
2023/03/29 04:23:20;;;;;;;5.00;2.97;;;9.20;93.90;;;;;;10345169;28;20207;-78
2023/03/29 04:28:23;;;;;;;3.20;3.00;;;9.20;93.50;;;;;;10353441;28;20227;-78
2023/03/29 04:33:46;;;;;;;3.10;2.80;;;9.30;93.80;;;;;;10382644;28;20268;-79
2023/03/29 04:38:51;;;;;;;4.17;2.77;;;9.40;92.80;;;;;;10381980;28;20212;-78
2023/03/29 04:43:54;;;;;;;3.03;2.80;;;9.40;93.00;;;;;;10361305;28;20195;-78
2023/03/29 04:49:01;;;;;;;2.63;2.43;;;9.40;93.30;;;;;;10356017;28;20222;-78
2023/03/29 04:54:13;;;;;;;3.70;2.60;;;9.50;93.00;;;;;;10378401;28;20224;-78
2023/03/29 04:59:36;;;;;;;2.77;2.53;;;9.60;92.50;;;;;;10345321;28;20233;-79
2023/03/29 05:04:54;;;;;;;2.80;2.60;;;9.60;92.50;;;;;;10351755;28;20656;-79
2023/03/29 05:09:56;;;;;;;6.80;5.57;;;9.60;93.40;;;;;;10359055;28;20231;-78
2023/03/29 05:14:58;;;;;;;3.20;2.97;;;9.70;92.80;;;;;;10386614;28;20218;-78
2023/03/29 05:20:08;;;;;;;2.90;2.70;;;9.70;92.70;;;;;;10353549;28;20211;-78
2023/03/29 05:25:12;;;;;;;3.67;3.47;;;9.70;93.40;;;;;;10385443;28;20219;-78
2023/03/29 05:30:16;;;;;;;2.50;2.30;;;9.80;93.80;;;;;;10364636;28;20223;-78
2023/03/29 05:35:46;;;;;;;2.77;2.67;;;9.80;94.00;;;;;;10356631;28;20317;-78
2023/03/29 05:40:48;;;;;;;2.63;2.53;;;9.90;92.00;;;;;;10361393;28;20354;-78
2023/03/29 05:46:13;;;;;;;2.60;2.47;;;9.90;91.90;;;;;;10382384;28;20195;-78
2023/03/29 05:51:24;;;;;;;4.33;2.70;;;10.00;90.90;;;;;;10332957;28;20202;-79
2023/03/29 05:56:30;;;;;;;2.77;2.57;;;10.10;90.10;;;;;;10383054;28;20277;-79
2023/03/29 06:01:32;;;;;;;2.43;2.33;;;10.10;90.00;;;;;;10363795;28;20203;-78
2023/03/29 06:06:42;;;;;;;3.70;2.80;;;10.20;90.00;;;;;;10353257;28;20290;-78
2023/03/29 06:11:45;;;;;;;2.60;2.43;;;10.20;90.20;;;;;;10375427;28;20197;-78
2023/03/29 06:17:00;;;;;;;2.93;2.77;;;10.40;89.20;;;;;;10372870;28;20246;-78
2023/03/29 06:22:04;;;;;;;2.80;2.60;;;10.40;89.40;;;;;;10340073;28;20240;-78
2023/03/29 06:27:08;;;;;;;2.80;2.60;;;10.50;89.60;;;;;;10381725;28;20596;-78
2023/03/29 06:32:11;;;;;;;3.27;2.97;;;10.60;89.00;;;;;;10353782;28;20194;-78
2023/03/29 06:37:35;;;;;;;2.43;2.23;;;10.70;90.00;;;;;;10340547;28;20229;-78
2023/03/29 06:43:00;;;;;;;3.43;3.00;;;10.70;90.80;;;;;;10365857;28;20187;-78
2023/03/29 06:48:21;;;;;;;3.70;3.40;;;10.70;92.00;;;;;;10382857;28;20226;-78
2023/03/29 06:53:26;;;;;;;3.57;3.27;;;10.80;92.40;;;;;;10378877;28;20542;-78
2023/03/29 06:58:34;;;;;;;3.07;2.80;;;10.90;91.70;;;;;;10345136;28;20772;-78
2023/03/29 07:03:44;;;;;;;3.17;2.87;;;11.00;91.50;;;;;;10374565;28;20611;-78
2023/03/29 07:08:51;;;;;;;3.50;3.20;;;11.10;91.50;;;;;;10344677;28;20638;-78
2023/03/29 07:14:12;;;;;;;3.07;2.37;;;11.10;91.20;;;;;;10376143;28;20218;-78
2023/03/29 07:19:15;;;;;;;3.80;3.20;;;11.20;90.80;;;;;;10355599;28;20307;-79
2023/03/29 07:24:27;;;;;;;3.03;2.60;;;11.30;91.30;;;;;;10350213;28;20190;-79
2023/03/29 07:29:29;;;;;;;4.23;2.70;;;11.40;91.00;;;;;;10370995;28;20222;-78
2023/03/29 07:34:32;;;;;;;4.53;2.90;;;11.50;90.90;;;;;;10349999;28;20243;-78
2023/03/29 07:39:36;;;;;;;5.37;4.90;;;11.50;91.10;;;;;;10363986;28;20215;-78
2023/03/29 07:45:02;;;;;;;4.77;3.00;;;11.60;92.50;;;;;;10359252;28;20211;-78
2023/03/29 07:50:11;;;;;;;6.50;3.10;;;11.70;91.80;;;;;;10376958;28;20278;-78
2023/03/29 07:55:15;;;;;;;3.30;3.00;;;11.80;92.40;;;;;;10339269;28;20219;-78
2023/03/29 08:00:58;;;;;;;2.20;2.10;;;11.90;91.10;;;;;;10279641;28;20778;-79
2023/03/29 08:06:29;;;;;;;4.10;2.47;;;12.00;90.60;;;;;;10364025;28;20223;-79
2023/03/29 08:11:33;;;;;;;2.63;2.40;;;12.10;92.00;;;;;;10351969;28;20200;-78
2023/03/29 08:16:38;;;;;;;2.60;2.30;;;12.20;91.70;;;;;;10345137;28;20222;-79
2023/03/29 08:21:46;;;;;;;2.60;2.40;;;12.40;92.30;;;;;;10369077;28;20195;-79
2023/03/29 08:26:50;;;;;;;2.23;2.00;;;12.50;90.70;;;;;;10351730;28;20220;-79
2023/03/29 08:31:56;;;;;;;2.80;2.20;;;12.60;90.50;;;;;;10355451;28;20195;-79
2023/03/29 08:36:58;;;;;;;4.50;2.53;;;12.80;90.50;;;;;;10368082;28;20220;-78
2023/03/29 08:42:29;;;;;;;2.53;2.33;;;12.70;91.00;;;;;;10381286;28;20206;-78
2023/03/29 08:47:41;;;;;;;2.40;2.00;;;12.70;90.70;;;;;;10363616;28;20298;-78
2023/03/29 08:52:51;;;;;;;2.13;2.00;;;12.70;88.60;;;;;;10370607;28;20214;-79
2023/03/29 08:58:16;;;;;;;2.53;2.33;;;12.70;88.10;;;;;;10356023;28;20230;-79
2023/03/29 09:03:22;;;;;;;2.40;2.20;;;12.70;90.50;;;;;;10349000;28;20641;-78
2023/03/29 09:08:25;;;;;;;3.40;2.63;;;12.80;88.20;;;;;;10374256;28;20229;-80
2023/03/29 09:13:37;;;;;;;2.40;2.20;;;12.90;88.90;;;;;;10358119;28;20278;-80
2023/03/29 09:18:52;;;;;;;4.33;2.33;;;13.10;90.10;;;;;;10356260;28;20258;-80
2023/03/29 09:24:10;;;;;;;6.00;2.10;;;13.30;89.30;;;;;;10358490;28;20207;-80
2023/03/29 09:29:40;;;;;;;2.30;2.10;;;13.50;88.30;;;;;;10352258;28;20275;-80
2023/03/29 09:34:49;;;;;;;2.70;2.00;;;13.60;88.00;;;;;;10329503;28;20680;-80
2023/03/29 09:39:56;;;;;;;3.33;2.33;;;13.80;83.20;;;;;;10335084;28;20243;-80
2023/03/29 09:45:09;;;;;;;3.57;2.40;;;13.90;84.40;;;;;;10364210;28;20202;-79
2023/03/29 09:50:22;;;;;;;4.97;2.93;;;14.00;83.70;;;;;;10348270;28;20224;-80
2023/03/29 09:55:28;;;;;;;2.80;2.60;;;14.20;83.80;;;;;;10365482;28;20250;-80
2023/03/29 10:00:40;;;;;;;2.83;2.50;;;14.40;83.30;;;;;;10370618;28;20309;-79
2023/03/29 10:05:46;;;;;;;2.63;2.43;;;14.70;81.40;;;;;;10341019;28;20571;-79
2023/03/29 10:10:54;;;;;;;2.93;2.67;;;15.00;79.40;;;;;;10363396;28;20225;-80
2023/03/29 10:16:02;;;;;;;2.47;2.37;;;15.10;80.80;;;;;;10340466;28;20595;-78
2023/03/29 10:21:06;;;;;;;2.83;2.63;;;15.20;83.30;;;;;;10357942;28;20295;-78
2023/03/29 10:26:20;;;;;;;2.07;1.97;;;15.20;78.30;;;;;;10378411;28;20206;-78
2023/03/29 10:31:25;;;;;;;2.57;2.47;;;15.20;83.30;;;;;;10364842;28;20278;-79
2023/03/29 10:36:27;;;;;;;1.87;1.77;;;15.30;77.70;;;;;;10339246;28;20216;-79
2023/03/29 10:41:33;;;;;;;2.90;2.70;;;15.30;80.00;;;;;;10357211;28;20678;-79
2023/03/29 10:46:42;;;;;;;3.33;3.07;;;15.40;81.00;;;;;;10343062;28;20216;-79
2023/03/29 10:51:46;;;;;;;2.67;2.50;;;15.70;81.60;;;;;;10340654;28;20290;-79
2023/03/29 10:56:52;;;;;;;5.47;2.00;;;15.90;79.30;;;;;;10378934;28;20241;-79
2023/03/29 11:02:23;;;;;;;2.80;2.57;;;16.00;79.80;;;;;;10355611;28;20196;-79
2023/03/29 11:07:30;;;;;;;3.23;2.67;;;16.00;78.40;;;;;;10402704;28;20227;-79
2023/03/29 11:12:44;;;;;;;3.00;2.80;;;16.10;81.30;;;;;;10380579;28;20259;-79
2023/03/29 11:17:56;;;;;;;2.60;2.40;;;16.20;79.20;;;;;;10355891;28;20758;-79
2023/03/29 11:23:10;;;;;;;2.73;2.53;;;16.20;81.80;;;;;;10373872;28;20345;-79
2023/03/29 11:28:19;;;;;;;2.80;2.60;;;16.20;80.30;;;;;;10346067;28;20222;-78
2023/03/29 11:33:37;;;;;;;4.30;3.10;;;16.10;78.90;;;;;;10362814;28;20299;-78
2023/03/29 11:38:44;;;;;;;3.57;3.27;;;16.00;80.40;;;;;;10361969;28;20218;-78
2023/03/29 11:43:51;;;;;;;2.67;2.47;;;15.90;78.40;;;;;;10372679;28;20221;-78
2023/03/29 11:49:00;;;;;;;3.23;2.93;;;15.90;78.40;;;;;;10347138;28;20218;-80
2023/03/29 11:54:06;;;;;;;3.23;2.93;;;16.00;81.90;;;;;;10371019;28;20672;-78
2023/03/29 11:59:15;;;;;;;2.60;2.40;;;16.10;82.20;;;;;;10334782;28;20673;-78
2023/03/29 12:04:24;;;;;;;3.03;2.83;;;16.10;83.60;;;;;;10351717;28;20188;-78
2023/03/29 12:09:32;;;;;;;2.73;2.53;;;16.00;84.70;;;;;;10363680;28;20270;-78
2023/03/29 12:14:53;;;;;;;2.77;2.57;;;16.00;82.50;;;;;;10339795;28;20212;-78
2023/03/29 12:20:05;;;;;;;3.37;2.70;;;16.00;75.90;;;;;;10343755;28;20716;-77
2023/03/29 12:25:16;;;;;;;3.40;2.97;;;16.20;77.00;;;;;;10338428;28;20196;-79
2023/03/29 12:30:48;;;;;;;2.33;2.23;;;16.40;76.10;;;;;;10344564;28;20220;-77
2023/03/29 12:36:04;;;;;;;2.47;2.37;;;16.60;75.50;;;;;;10357824;28;20224;-78
2023/03/29 12:41:26;;;;;;;2.10;2.00;;;16.70;75.20;;;;;;10365863;28;20195;-81
2023/03/29 12:46:40;;;;;;;1.67;1.57;;;16.80;78.20;;;;;;10367296;28;20569;-80
2023/03/29 12:51:44;;;;;;;2.17;2.07;;;16.80;78.80;;;;;;10358631;28;20231;-79
2023/03/29 12:56:56;;;;;;;2.00;1.90;;;16.80;74.30;;;;;;10375742;28;20222;-82
2023/03/29 13:02:03;;;;;;;3.37;2.43;;;16.70;77.90;;;;;;10366416;28;20204;-82
2023/03/29 13:07:12;;;;;;;4.43;2.17;;;16.70;77.80;;;;;;10376656;28;20215;-83
2023/03/29 13:12:25;;;;;;;2.43;2.33;;;16.70;80.70;;;;;;10395548;28;20246;-80
2023/03/29 13:17:35;;;;;;;5.50;2.30;;;16.60;80.30;;;;;;10355378;28;20220;-81
2023/03/29 13:22:47;;;;;;;2.77;2.53;;;16.50;81.50;;;;;;10371368;28;20269;-80
2023/03/29 13:27:55;;;;;;;2.47;2.27;;;16.50;79.10;;;;;;10371537;28;20222;-80
2023/03/29 13:33:11;;;;;;;3.50;2.33;;;16.50;76.40;;;;;;10378748;28;20199;-80
2023/03/29 13:38:19;;;;;;;2.17;2.07;;;16.60;79.40;;;;;;10353657;28;20215;-82
2023/03/29 13:43:30;;;;;;;2.40;2.20;;;16.50;82.20;;;;;;10373641;28;20238;-82
2023/03/29 13:48:45;;;;;;;4.27;2.40;;;16.40;83.90;;;;;;10375967;28;20702;-78
2023/03/29 13:53:54;;;;;;;3.33;2.30;;;16.30;84.50;;;;;;10350988;28;20657;-81
2023/03/29 13:59:06;;;;;;;4.00;2.60;;;16.20;85.40;;;;;;10379831;28;20219;-82
2023/03/29 14:04:14;;;;;;;2.40;2.20;;;16.10;87.80;;;;;;10350344;28;20676;-81
2023/03/29 14:09:20;;;;;;;2.97;2.43;;;15.90;88.50;;;;;;10344470;28;20270;-80
2023/03/29 14:14:24;;;;;;;2.67;2.47;;;15.70;91.40;;;;;;10361535;28;20207;-80
2023/03/29 14:19:31;;;;;;;2.60;2.30;;;15.50;93.10;;;;;;10348629;28;20493;-80
2023/03/29 14:24:38;;;;;;;5.70;4.97;;;15.40;94.10;;;;;;10344960;28;20744;-79
2023/03/29 14:29:41;;;;;;;4.23;2.50;;;15.30;95.00;;;;;;10378946;28;20230;-80
2023/03/29 14:34:47;;;;;;;2.50;2.30;;;15.20;95.10;;;;;;10381942;28;20214;-78
2023/03/29 14:39:51;;;;;;;2.50;2.40;;;15.20;94.70;;;;;;10353239;28;20305;-82
2023/03/29 14:44:58;;;;;;;2.90;2.50;;;15.20;95.10;;;;;;10377546;28;20655;-82
2023/03/29 14:50:01;;;;;;;3.87;2.43;;;15.20;95.40;;;;;;10386332;28;20219;-79
2023/03/29 14:55:06;;;;;;;4.60;2.87;;;15.20;96.10;;;;;;10383479;28;20217;-83
2023/03/29 15:00:21;;;;;;;2.30;2.20;;;15.20;94.60;;;;;;10383309;28;20219;-80
2023/03/29 15:05:30;;;;;;;2.10;2.00;;;15.30;95.10;;;;;;10327844;28;20199;-81
2023/03/29 15:10:35;;;;;;;2.70;2.53;;;15.30;95.40;;;;;;10379531;28;20294;-80
2023/03/29 15:15:39;;;;;;;3.67;3.07;;;15.30;95.80;;;;;;10374649;28;20219;-80
2023/03/29 15:20:43;;;;;;;4.80;2.77;;;15.30;95.50;;;;;;10346315;28;20220;-82
2023/03/29 15:25:50;;;;;;;2.90;2.70;;;15.20;94.90;;;;;;10378653;28;20278;-82
2023/03/29 15:30:58;;;;;;;3.50;3.20;;;15.20;95.90;;;;;;10349282;28;20222;-82
2023/03/29 15:36:02;;;;;;;2.60;2.40;;;15.20;95.90;;;;;;10380485;28;20302;-82
2023/03/29 15:41:07;;;;;;;2.50;2.30;;;15.20;95.50;;;;;;10347414;28;20216;-82
2023/03/29 15:46:12;;;;;;;3.30;3.10;;;15.20;95.20;;;;;;10348226;28;20192;-80
2023/03/29 15:51:14;;;;;;;3.47;3.00;;;15.20;94.50;;;;;;10380775;28;20202;-80
2023/03/29 15:56:21;;;;;;;3.07;2.53;;;15.20;94.00;;;;;;10346345;28;20216;-82
2023/03/29 16:01:32;;;;;;;4.63;2.60;;;15.10;94.20;;;;;;10345715;28;20621;-81
2023/03/29 16:06:34;;;;;;;3.33;2.53;;;15.10;94.80;;;;;;10390781;28;20219;-80
2023/03/29 16:11:38;;;;;;;2.80;2.63;;;15.10;94.50;;;;;;10337665;28;20196;-82
2023/03/29 16:16:42;;;;;;;3.90;3.60;;;15.00;95.10;;;;;;10379212;28;20223;-82
2023/03/29 16:21:45;;;;;;;3.23;2.93;;;15.00;95.30;;;;;;10389059;28;20214;-82
2023/03/29 16:26:48;;;;;;;3.37;3.07;;;15.00;94.50;;;;;;10355430;28;20270;-82
2023/03/29 16:31:51;;;;;;;3.83;3.53;;;15.00;94.30;;;;;;10369247;28;20196;-81
2023/03/29 16:36:53;;;;;;;4.33;3.50;;;15.10;94.30;;;;;;10376877;28;20287;-80
2023/03/29 16:41:56;;;;;;;2.97;2.80;;;15.10;94.70;;;;;;10379889;28;20207;-80
2023/03/29 16:46:59;;;;;;;3.07;2.87;;;15.10;94.70;;;;;;10345412;28;20220;-80
2023/03/29 16:52:01;;;;;;;4.63;3.33;;;14.90;94.50;;;;;;10380509;28;20269;-80
2023/03/29 16:57:06;;;;;;;6.47;3.40;;;15.00;94.60;;;;;;10369736;28;20215;-81
2023/03/29 17:02:10;;;;;;;4.73;3.50;;;14.90;94.80;;;;;;10346685;28;20196;-81
2023/03/29 17:07:12;;;;;;;6.80;5.37;;;14.90;94.60;;;;;;10344705;28;20212;-79
2023/03/29 17:12:15;;;;;;;11.10;8.60;;;14.90;94.50;;;;;;10379947;28;20278;-79
2023/03/29 17:17:17;;;;;;;9.67;7.90;;;14.90;94.60;;;;;;10379799;28;20285;-79
2023/03/29 17:22:20;;;;;;;6.30;5.53;;;14.90;95.30;;;;;;10380642;28;20234;-79
2023/03/29 17:27:24;;;;;;;7.93;4.70;;;14.70;95.90;;;;;;10367487;28;20215;-79
2023/03/29 17:32:26;;;;;;;7.20;3.80;;;14.60;95.80;;;;;;10381005;28;20245;-79
2023/03/29 17:37:28;;;;;;;4.20;3.80;;;14.60;95.30;;;;;;10379655;28;20219;-79
2023/03/29 17:42:31;;;;;;;6.27;4.30;;;14.60;96.20;;;;;;10383385;28;20250;-80
2023/03/29 17:47:33;;;;;;;8.63;4.90;;;14.50;97.40;;;;;;10386361;28;20212;-79
2023/03/29 17:52:38;;;;;;;5.87;4.00;;;14.40;97.60;;;;;;10377592;28;20206;-79
2023/03/29 17:57:42;;;;;;;10.23;4.17;;;14.20;97.20;;;;;;10380787;28;20230;-78
2023/03/29 18:02:44;;;;;;;4.30;4.00;;;14.10;97.50;;;;;;10385844;28;20205;-78
2023/03/29 18:07:46;;;;;;;11.33;4.50;;;14.00;97.30;;;;;;10382763;28;20223;-79
2023/03/29 18:12:50;;;;;;;4.50;4.20;;;14.00;97.40;;;;;;10364223;28;20223;-78
2023/03/29 18:17:52;;;;;;;4.53;4.03;;;14.00;97.40;;;;;;10383562;28;20306;-78
2023/03/29 18:22:54;;;;;;;5.20;4.03;;;14.00;96.70;;;;;;10387828;28;20199;-78
2023/03/29 18:27:58;;;;;;;3.80;3.50;;;14.00;96.00;;;;;;10379557;28;20226;-78
2023/03/29 18:33:00;;;;;;;5.90;5.40;;;14.00;96.00;;;;;;10378868;28;20242;-78
2023/03/29 18:38:03;;;;;;;5.30;4.83;;;14.00;95.70;;;;;;10374741;28;20263;-78
2023/03/29 18:43:06;;;;;;;5.73;4.00;;;14.10;95.50;;;;;;10378507;28;20660;-79
2023/03/29 18:48:08;;;;;;;8.27;4.50;;;14.10;95.00;;;;;;10384365;28;20238;-78
2023/03/29 18:53:10;;;;;;;7.63;4.40;;;14.10;95.30;;;;;;10385817;28;20294;-78
2023/03/29 18:58:15;;;;;;;7.00;5.20;;;14.00;94.90;;;;;;10372509;28;20231;-77
2023/03/29 19:03:17;;;;;;;6.03;4.70;;;14.10;94.60;;;;;;10374628;28;20199;-78
2023/03/29 19:08:19;;;;;;;5.63;3.93;;;14.10;94.20;;;;;;10364994;28;20207;-79
2023/03/29 19:13:22;;;;;;;5.70;4.10;;;14.10;94.40;;;;;;10352596;28;20200;-78
2023/03/29 19:18:25;;;;;;;5.20;3.87;;;14.10;94.30;;;;;;10382917;28;20774;-79
2023/03/29 19:23:27;;;;;;;5.70;4.27;;;14.00;94.40;;;;;;10384941;28;20253;-79
2023/03/29 19:28:31;;;;;;;5.30;4.80;;;14.00;94.70;;;;;;10383677;28;20210;-78
2023/03/29 19:33:33;;;;;;;5.73;4.40;;;14.00;94.80;;;;;;10385127;28;20199;-79
2023/03/29 19:38:35;;;;;;;4.63;4.17;;;13.90;94.90;;;;;;10384198;28;20684;-79
2023/03/29 19:43:38;;;;;;;8.07;5.80;;;13.90;95.10;;;;;;10387137;28;20207;-79
2023/03/29 19:48:40;;;;;;;15.33;8.90;;;13.80;95.80;;;;;;10351672;28;20224;-80
2023/03/29 19:53:42;;;;;;;5.27;4.37;;;13.80;95.10;;;;;;10380240;28;20518;-80
2023/03/29 19:58:47;;;;;;;5.80;5.20;;;13.80;95.30;;;;;;10382974;28;20647;-78
2023/03/29 20:03:49;;;;;;;45.30;19.10;;;13.70;95.80;;;;;;10392447;28;20198;-78
2023/03/29 20:08:52;;;;;;;5.13;4.73;;;13.60;95.60;;;;;;10368800;28;20302;-77
2023/03/29 20:13:56;;;;;;;7.53;5.63;;;13.60;95.70;;;;;;10353612;28;20196;-80
2023/03/29 20:19:00;;;;;;;6.20;4.90;;;13.50;95.80;;;;;;10343778;28;20224;-81
2023/03/29 20:24:03;;;;;;;6.47;5.73;;;13.50;95.80;;;;;;10363582;28;20218;-78
2023/03/29 20:29:07;;;;;;;7.07;4.80;;;13.50;95.60;;;;;;10357325;28;20330;-79
2023/03/29 20:34:09;;;;;;;6.50;3.90;;;13.60;95.30;;;;;;10352281;28;20263;-78
2023/03/29 20:39:15;;;;;;;5.20;4.50;;;13.60;94.90;;;;;;10349799;28;20228;-78
2023/03/29 20:44:21;;;;;;;7.63;4.63;;;13.60;94.50;;;;;;10382581;28;20230;-79
2023/03/29 20:49:25;;;;;;;6.37;4.30;;;13.60;94.50;;;;;;10383471;28;20239;-79
2023/03/29 20:54:27;;;;;;;9.30;6.10;;;13.60;94.80;;;;;;10386867;28;20218;-79
2023/03/29 20:59:31;;;;;;;13.63;4.93;;;13.60;94.40;;;;;;10360790;28;20270;-79
2023/03/29 21:04:33;;;;;;;6.70;3.50;;;13.70;93.40;;;;;;10362307;28;20472;-80
2023/03/29 21:09:36;;;;;;;9.07;3.83;;;13.70;92.80;;;;;;10369892;28;20214;-79
2023/03/29 21:14:40;;;;;;;9.50;4.30;;;13.80;92.40;;;;;;10365835;28;20219;-79
2023/03/29 21:19:42;;;;;;;8.50;3.70;;;13.80;91.90;;;;;;10368896;28;20226;-79
2023/03/29 21:24:44;;;;;;;4.00;3.20;;;13.90;91.70;;;;;;10370526;28;20191;-80
2023/03/29 21:30:07;;;;;;;7.00;3.50;;;14.00;91.50;;;;;;10354509;28;20220;-80
2023/03/29 21:35:10;;;;;;;9.23;3.60;;;14.10;90.90;;;;;;10370890;28;20731;-79
2023/03/29 21:40:13;;;;;;;6.57;3.30;;;14.30;90.00;;;;;;10373369;28;20737;-80
2023/03/29 21:45:17;;;;;;;3.47;3.00;;;14.40;90.10;;;;;;10369729;28;20242;-79
2023/03/29 21:50:19;;;;;;;5.10;3.30;;;14.60;88.90;;;;;;10357853;28;20611;-80
2023/03/29 21:55:21;;;;;;;7.63;3.77;;;14.70;89.00;;;;;;10373159;28;20540;-80
2023/03/29 22:00:25;;;;;;;6.60;3.00;;;14.90;88.60;;;;;;10370882;28;20300;-80
2023/03/29 22:05:27;;;;;;;4.63;3.30;;;15.10;88.40;;;;;;10375167;28;20726;-80
2023/03/29 22:10:31;;;;;;;4.57;3.30;;;15.20;88.10;;;;;;10374996;28;20307;-79
2023/03/29 22:15:35;;;;;;;10.30;3.90;;;15.20;88.40;;;;;;10374772;28;20204;-80
2023/03/29 22:20:37;;;;;;;8.90;3.50;;;15.30;88.50;;;;;;10374233;28;20218;-80
2023/03/29 22:25:39;;;;;;;6.40;2.90;;;15.30;88.90;;;;;;10371889;28;20283;-80
2023/03/29 22:30:42;;;;;;;5.57;3.20;;;15.30;88.80;;;;;;10374371;28;20235;-80
2023/03/29 22:35:44;;;;;;;5.03;3.30;;;15.30;89.00;;;;;;10374399;28;20203;-79
2023/03/29 22:40:47;;;;;;;14.73;3.80;;;15.50;88.70;;;;;;10368920;28;20299;-80
2023/03/29 22:45:50;;;;;;;6.00;3.20;;;15.50;88.70;;;;;;10367342;28;20196;-80
2023/03/29 22:50:52;;;;;;;4.90;2.67;;;15.40;89.10;;;;;;10382481;28;20718;-80
2023/03/29 22:55:55;;;;;;;7.80;3.20;;;15.50;89.10;;;;;;10383898;28;20286;-80
2023/03/29 23:00:58;;;;;;;7.60;3.53;;;15.50;89.40;;;;;;10368753;28;20238;-80
2023/03/29 23:06:01;;;;;;;9.00;3.70;;;15.50;89.90;;;;;;10360215;28;20613;-80
2023/03/29 23:11:04;;;;;;;5.90;3.30;;;15.50;89.80;;;;;;10366746;28;20699;-80
2023/03/29 23:16:08;;;;;;;6.30;2.80;;;15.50;90.00;;;;;;10379636;28;20270;-79
2023/03/29 23:21:10;;;;;;;5.57;3.43;;;15.50;90.10;;;;;;10366787;28;20196;-79
2023/03/29 23:26:12;;;;;;;9.30;3.70;;;15.50;90.10;;;;;;10361875;28;20215;-79
2023/03/29 23:31:17;;;;;;;8.00;3.77;;;15.60;90.00;;;;;;10377178;28;20195;-79
2023/03/29 23:36:20;;;;;;;12.57;3.30;;;15.60;90.20;;;;;;10384913;28;20230;-80
2023/03/29 23:41:26;;;;;;;17.53;4.03;;;15.70;90.10;;;;;;10364923;28;20202;-80
2023/03/29 23:46:31;;;;;;;5.20;3.40;;;15.80;90.00;;;;;;10372227;28;20238;-81
2023/03/29 23:51:33;;;;;;;8.50;3.13;;;15.80;90.00;;;;;;10364887;28;20630;-80
2023/03/29 23:56:35;;;;;;;8.57;4.03;;;15.80;90.40;;;;;;10376898;28;20220;-80
